createdAt,value
2022-12-26T00:02:00.180Z,28.13
2022-12-26T00:04:49.861Z,28.25
2022-12-26T00:07:14.882Z,28.63
2022-12-26T00:09:42.332Z,27.65
2022-12-26T00:12:09.501Z,24.98
2022-12-26T00:14:36.736Z,27.92
2022-12-26T00:17:03.881Z,26.58
2022-12-26T00:19:31.070Z,30.60
2022-12-26T00:21:58.259Z,27.10
2022-12-26T00:24:25.398Z,27.25
2022-12-26T00:26:52.583Z,27.58
2022-12-26T00:29:19.730Z,24.80
2022-12-26T00:31:47.219Z,40.95
2022-12-26T00:34:14.429Z,31.15
2022-12-26T00:36:41.767Z,32.95
2022-12-26T00:39:08.998Z,31.38
2022-12-26T00:41:36.159Z,33.95
2022-12-26T00:44:03.620Z,27.75
2022-12-26T00:46:30.986Z,25.10
2022-12-26T00:48:58.334Z,18.75
2022-12-26T00:51:25.888Z,18.90
2022-12-26T00:53:53.061Z,21.13
2022-12-26T00:56:20.654Z,15.82
2022-12-26T00:58:47.845Z,16.13
2022-12-26T01:01:19.460Z,15.07
2022-12-26T01:03:47.982Z,15.98
2022-12-26T01:06:16.159Z,14.85
2022-12-26T01:08:43.733Z,14.63
2022-12-26T01:11:14.954Z,17.00
2022-12-26T01:13:42.896Z,26.45
2022-12-26T01:16:10.478Z,20.02
2022-12-26T01:18:37.779Z,19.05
2022-12-26T01:21:10.289Z,19.27
2022-12-26T01:23:37.475Z,20.00
2022-12-26T01:26:16.830Z,18.27
2022-12-26T01:28:49.162Z,20.83
2022-12-26T01:31:16.871Z,20.58
2022-12-26T01:33:44.292Z,24.33
2022-12-26T01:36:11.494Z,20.23
2022-12-26T01:38:38.738Z,23.27
2022-12-26T01:41:19.533Z,21.10
2022-12-26T01:44:04.780Z,25.52
2022-12-26T01:46:44.088Z,22.35
2022-12-26T01:49:26.606Z,24.42
2022-12-26T01:52:01.849Z,27.90
2022-12-26T01:54:42.345Z,27.38
2022-12-26T01:57:22.890Z,28.35
2022-12-26T01:59:52.417Z,28.35
2022-12-26T02:02:24.793Z,30.90
2022-12-26T02:05:13.634Z,29.75
2022-12-26T02:07:45.602Z,32.47
2022-12-26T02:10:22.859Z,32.47
2022-12-26T02:12:50.606Z,35.20
2022-12-26T02:15:18.836Z,36.40
2022-12-26T02:17:45.975Z,34.97
2022-12-26T02:20:19.606Z,37.00
2022-12-26T02:23:46.530Z,39.30
2022-12-26T02:26:47.616Z,45.55
2022-12-26T02:29:49.189Z,45.97
2022-12-26T02:33:07.097Z,49.28
2022-12-26T02:36:01.132Z,43.67
2022-12-26T02:38:51.529Z,47.63
2022-12-26T02:41:35.846Z,41.88
2022-12-26T02:44:48.508Z,37.97
2022-12-26T02:48:09.534Z,33.33
2022-12-26T02:51:48.621Z,31.25
2022-12-26T02:54:47.625Z,32.88
2022-12-26T02:57:40.593Z,33.58
2022-12-26T03:00:40.159Z,37.85
2022-12-26T03:03:47.594Z,32.72
2022-12-26T03:06:40.533Z,31.27
2022-12-26T03:09:42.612Z,33.22
2022-12-26T03:12:55.092Z,32.28
2022-12-26T03:15:26.505Z,32.00
2022-12-26T03:18:03.754Z,31.83
2022-12-26T03:20:35.850Z,30.95
2022-12-26T03:23:12.127Z,27.17
2022-12-26T03:26:07.072Z,26.35
2022-12-26T03:28:34.584Z,23.75
2022-12-26T03:31:08.361Z,24.40
2022-12-26T03:34:01.751Z,24.77
2022-12-26T03:37:18.658Z,27.75
2022-12-26T03:40:32.183Z,24.70
2022-12-26T03:43:48.003Z,30.40
2022-12-26T03:47:01.717Z,27.75
2022-12-26T03:49:55.528Z,29.20
2022-12-26T03:52:55.974Z,32.13
2022-12-26T03:56:12.692Z,33.50
2022-12-26T03:59:14.361Z,34.25
2022-12-26T04:02:04.824Z,32.10
2022-12-26T04:04:56.391Z,32.55
2022-12-26T04:07:56.410Z,30.42
2022-12-26T04:10:52.046Z,27.42
2022-12-26T04:13:46.583Z,34.88
2022-12-26T04:16:43.650Z,32.72
2022-12-26T04:19:51.784Z,34.83
2022-12-26T04:22:53.172Z,38.90
2022-12-26T04:25:51.726Z,33.95
2022-12-26T04:28:41.062Z,36.45
2022-12-26T04:31:35.911Z,38.38
2022-12-26T04:34:34.192Z,36.47
2022-12-26T04:37:25.459Z,36.92
2022-12-26T04:40:16.088Z,40.25
2022-12-26T04:43:47.264Z,41.20
2022-12-26T04:45:51.744Z,39.90
2022-12-26T04:48:37.602Z,42.22
2022-12-26T04:51:05.191Z,43.92
2022-12-26T04:53:32.771Z,43.63
2022-12-26T04:55:59.970Z,43.63
2022-12-26T04:58:27.093Z,43.20
2022-12-26T05:01:14.253Z,47.17
2022-12-26T05:04:00.424Z,46.05
2022-12-26T05:06:46.651Z,46.42
2022-12-26T05:09:34.792Z,49.03
2022-12-26T05:12:08.773Z,46.05
2022-12-26T05:14:36.851Z,45.90
2022-12-26T05:17:25.485Z,47.33
2022-12-26T05:20:12.107Z,48.75
2022-12-26T05:23:01.760Z,44.78
2022-12-26T05:25:53.211Z,44.58
2022-12-26T05:28:39.315Z,41.70
2022-12-26T05:31:07.217Z,38.88
2022-12-26T05:33:53.080Z,46.92
2022-12-26T05:36:24.470Z,34.58
2022-12-26T05:38:51.968Z,37.08
2022-12-26T05:41:19.204Z,37.28
2022-12-26T05:43:46.382Z,32.92
2022-12-26T05:46:13.544Z,29.63
2022-12-26T05:48:40.779Z,26.10
2022-12-26T05:51:07.993Z,22.98
2022-12-26T05:53:35.322Z,25.58
2022-12-26T05:56:05.966Z,23.20
2022-12-26T05:58:34.162Z,26.23
2022-12-26T06:01:18.351Z,29.13
2022-12-26T06:03:54.962Z,26.58
2022-12-26T06:06:24.795Z,27.48
2022-12-26T06:08:55.343Z,25.25
2022-12-26T06:11:25.653Z,24.15
2022-12-26T06:13:53.212Z,28.10
2022-12-26T06:16:20.684Z,24.70
2022-12-26T06:18:48.684Z,24.98
2022-12-26T06:21:19.725Z,24.95
2022-12-26T06:23:48.193Z,25.77
2022-12-26T06:26:16.780Z,27.00
2022-12-26T06:28:44.275Z,25.98
2022-12-26T06:31:16.608Z,28.98
2022-12-26T06:33:44.172Z,26.55
2022-12-26T06:36:18.941Z,32.70
2022-12-26T06:38:47.038Z,26.50
2022-12-26T06:41:19.153Z,25.90
2022-12-26T06:43:49.286Z,23.53
2022-12-26T06:46:21.319Z,22.85
2022-12-26T06:48:48.990Z,20.47
2022-12-26T06:51:23.883Z,17.60
2022-12-26T06:53:53.234Z,17.52
2022-12-26T06:56:25.143Z,17.35
2022-12-26T06:58:54.908Z,25.88
2022-12-26T07:01:24.244Z,23.45
2022-12-26T07:03:53.629Z,15.15
2022-12-26T07:06:30.707Z,13.60
2022-12-26T07:09:05.751Z,14.10
2022-12-26T07:11:39.659Z,12.23
2022-12-26T07:14:08.265Z,12.52
2022-12-26T07:16:38.006Z,12.70
2022-12-26T07:19:06.965Z,13.00
2022-12-26T07:21:39.995Z,13.98
2022-12-26T07:24:16.550Z,15.35
2022-12-26T07:26:46.222Z,14.80
2022-12-26T07:29:15.024Z,16.17
2022-12-26T07:31:42.626Z,17.48
2022-12-26T07:34:10.156Z,15.57
2022-12-26T07:36:37.499Z,17.00
2022-12-26T07:39:04.684Z,18.13
2022-12-26T07:41:50.667Z,15.60
2022-12-26T07:44:17.821Z,15.95
2022-12-26T07:46:46.669Z,17.65
2022-12-26T07:49:14.568Z,18.08
2022-12-26T07:51:42.969Z,17.45
2022-12-26T07:54:11.625Z,17.52
2022-12-26T07:56:41.497Z,16.50
2022-12-26T07:59:16.942Z,16.55
2022-12-26T08:01:44.776Z,16.52
2022-12-26T08:04:13.719Z,20.48
2022-12-26T08:06:41.015Z,18.92
2022-12-26T08:09:12.822Z,16.10
2022-12-26T08:11:39.967Z,18.80
2022-12-26T08:14:07.112Z,24.13
2022-12-26T08:16:34.339Z,22.60
2022-12-26T08:19:03.991Z,20.00
2022-12-26T08:21:31.664Z,18.85
2022-12-26T08:23:58.800Z,19.00
2022-12-26T08:26:25.925Z,19.85
2022-12-26T08:28:55.264Z,18.90
2022-12-26T08:31:22.812Z,19.15
2022-12-26T08:33:50.109Z,16.73
2022-12-26T08:36:18.401Z,18.60
2022-12-26T08:38:46.036Z,20.23
2022-12-26T08:41:13.185Z,20.48
2022-12-26T08:46:27.964Z,17.20
2022-12-26T08:48:55.111Z,17.88
2022-12-26T08:51:24.911Z,17.92
2022-12-26T08:53:54.907Z,19.65
2022-12-26T08:56:25.240Z,19.10
2022-12-26T08:58:53.189Z,25.00
2022-12-26T09:01:27.151Z,25.15
2022-12-26T09:03:57.066Z,24.27
2022-12-26T09:06:25.271Z,17.83
2022-12-26T09:08:53.284Z,17.58
2022-12-26T09:11:26.874Z,19.42
2022-12-26T09:13:56.826Z,16.67
2022-12-26T09:16:32.702Z,17.50
2022-12-26T09:19:04.623Z,23.73
2022-12-26T09:21:32.807Z,27.10
2022-12-26T09:24:05.372Z,18.73
2022-12-26T09:26:33.911Z,18.63
2022-12-26T09:29:01.349Z,15.05
2022-12-26T09:31:32.424Z,16.30
2022-12-26T09:34:03.428Z,19.67
2022-12-26T09:36:35.481Z,30.63
2022-12-26T09:39:02.638Z,19.03
2022-12-26T09:41:35.672Z,17.83
2022-12-26T09:47:20.245Z,17.92
2022-12-26T09:50:09.241Z,14.18
2022-12-26T09:52:51.963Z,15.25
2022-12-26T09:55:41.025Z,18.40
2022-12-26T09:58:42.502Z,15.35
2022-12-26T10:01:24.533Z,14.23
2022-12-26T10:03:58.558Z,15.00
2022-12-26T10:06:36.997Z,10.85
2022-12-26T10:09:19.552Z,12.10
2022-12-26T10:12:05.044Z,12.40
2022-12-26T10:15:11.511Z,10.35
2022-12-26T10:18:18.288Z,14.60
2022-12-26T10:21:09.963Z,20.98
2022-12-26T10:23:54.788Z,11.68
2022-12-26T10:26:47.271Z,10.07
2022-12-26T10:29:30.171Z,11.25
2022-12-26T10:32:04.903Z,14.73
2022-12-26T10:34:49.637Z,9.68
2022-12-26T10:37:41.979Z,11.20
2022-12-26T10:40:12.075Z,11.07
2022-12-26T10:42:44.620Z,11.40
2022-12-26T10:45:19.336Z,12.65
2022-12-26T10:47:50.928Z,15.88
2022-12-26T10:50:30.124Z,10.45
2022-12-26T10:52:59.982Z,13.95
2022-12-26T10:55:35.215Z,11.68
2022-12-26T10:58:29.908Z,11.45
2022-12-26T11:00:59.269Z,12.68
2022-12-26T11:03:26.562Z,11.20
2022-12-26T11:06:07.573Z,11.90
2022-12-26T11:08:43.822Z,13.55
2022-12-26T11:11:22.565Z,13.02
2022-12-26T11:14:01.787Z,21.27
2022-12-26T11:16:35.751Z,17.20
2022-12-26T11:21:33.338Z,15.43
2022-12-26T11:24:09.319Z,17.35
2022-12-26T11:26:38.490Z,16.27
2022-12-26T11:29:37.107Z,13.20
2022-12-26T11:32:05.368Z,14.90
2022-12-26T11:34:46.106Z,14.13
2022-12-26T11:37:29.742Z,15.13
2022-12-26T11:39:58.600Z,11.57
2022-12-26T11:42:26.824Z,12.77
2022-12-26T11:44:56.986Z,10.73
2022-12-26T11:47:28.831Z,11.02
2022-12-26T11:50:08.199Z,14.10
2022-12-26T11:52:53.995Z,12.25
2022-12-26T11:55:24.130Z,12.07
2022-12-26T11:58:09.521Z,15.07
2022-12-26T12:00:43.596Z,9.98
2022-12-26T12:03:17.497Z,11.95
2022-12-26T12:06:08.988Z,11.45
2022-12-26T12:09:07.662Z,9.75
2022-12-26T12:11:44.436Z,10.00
2022-12-26T12:14:55.261Z,10.38
2022-12-26T12:17:37.571Z,9.55
2022-12-26T12:20:30.395Z,11.70
2022-12-26T12:23:18.326Z,13.35
2022-12-26T12:26:26.484Z,11.38
2022-12-26T12:29:22.693Z,8.85
2022-12-26T12:32:11.095Z,10.55
2022-12-26T12:35:29.127Z,10.50
2022-12-26T12:38:25.032Z,11.18
2022-12-26T12:41:09.649Z,8.63
2022-12-26T12:44:04.431Z,11.40
2022-12-26T12:47:07.699Z,9.88
2022-12-26T12:49:59.085Z,10.00
2022-12-26T12:52:55.230Z,9.63
2022-12-26T12:55:55.802Z,12.88
2022-12-26T12:58:43.721Z,10.38
2022-12-26T13:01:17.797Z,8.98
2022-12-26T13:03:50.286Z,9.35
2022-12-26T13:06:41.420Z,11.32
2022-12-26T13:09:22.817Z,9.20
2022-12-26T13:12:04.846Z,11.32
2022-12-26T13:14:49.401Z,9.60
2022-12-26T13:17:27.305Z,8.45
2022-12-26T13:20:06.353Z,8.85
2022-12-26T13:23:00.192Z,7.07
2022-12-26T13:25:36.963Z,11.43
2022-12-26T13:28:16.599Z,7.25
2022-12-26T13:30:43.841Z,15.82
2022-12-26T13:33:15.909Z,7.60
2022-12-26T13:35:59.529Z,7.07
2022-12-26T13:38:55.635Z,6.63
2022-12-26T13:41:44.479Z,8.85
2022-12-26T13:44:27.215Z,6.90
2022-12-26T13:46:58.045Z,8.32
2022-12-26T13:49:41.567Z,8.30
2022-12-26T13:52:11.775Z,7.38
2022-12-26T13:54:51.417Z,5.82
2022-12-26T13:57:45.692Z,9.50
2022-12-26T14:00:40.731Z,10.80
2022-12-26T14:03:41.378Z,8.90
2022-12-26T14:06:41.134Z,9.38
2022-12-26T14:09:31.733Z,16.70
2022-12-26T14:12:19.671Z,11.02
2022-12-26T14:15:28.072Z,5.35
2022-12-26T14:18:31.354Z,5.90
2022-12-26T14:21:26.172Z,2.60
2022-12-26T14:24:36.615Z,5.22
2022-12-26T14:27:37.667Z,5.30
2022-12-26T14:30:28.801Z,4.90
2022-12-26T14:33:27.698Z,3.70
2022-12-26T14:36:44.924Z,6.38
2022-12-26T14:40:20.542Z,7.15
2022-12-26T14:43:25.540Z,3.58
2022-12-26T14:45:54.591Z,7.50
2022-12-26T14:48:21.667Z,5.65
2022-12-26T14:50:51.063Z,6.95
2022-12-26T14:53:32.044Z,5.05
2022-12-26T14:56:15.751Z,5.80
2022-12-26T14:58:45.692Z,6.45
2022-12-26T15:01:12.934Z,6.82
2022-12-26T15:04:14.883Z,8.35
2022-12-26T15:07:20.350Z,6.88
2022-12-26T15:10:19.290Z,7.90
2022-12-26T15:13:42.933Z,7.03
2022-12-26T15:16:45.667Z,7.53
2022-12-26T15:20:04.911Z,3.35
2022-12-26T15:23:13.575Z,6.90
2022-12-26T15:26:18.430Z,3.20
2022-12-26T15:29:14.559Z,5.80
2022-12-26T15:32:17.039Z,4.43
2022-12-26T15:35:03.711Z,7.53
2022-12-26T15:37:57.083Z,5.72
2022-12-26T15:40:30.030Z,4.80
2022-12-26T15:45:47.008Z,8.68
2022-12-26T15:49:10.551Z,7.25
2022-12-26T15:52:02.141Z,5.88
2022-12-26T15:55:25.355Z,4.28
2022-12-26T15:58:37.720Z,6.18
2022-12-26T16:01:05.416Z,6.95
2022-12-26T16:03:53.556Z,6.20
2022-12-26T16:06:42.753Z,6.65
2022-12-26T16:09:43.742Z,6.75
2022-12-26T16:12:31.068Z,10.45
2022-12-26T16:15:10.583Z,7.88
2022-12-26T16:17:40.089Z,5.28
2022-12-26T16:20:47.775Z,11.98
2022-12-26T16:23:21.196Z,10.38
2022-12-26T16:25:54.840Z,9.70
2022-12-26T16:28:39.168Z,8.63
2022-12-26T16:31:07.866Z,8.13
2022-12-26T16:33:41.380Z,8.43
2022-12-26T16:36:13.559Z,10.52
2022-12-26T16:38:40.837Z,8.00
2022-12-26T16:41:32.483Z,5.28
2022-12-26T16:44:37.874Z,9.82
2022-12-26T16:47:11.763Z,9.63
2022-12-26T16:49:41.606Z,7.70
2022-12-26T16:52:33.336Z,6.97
2022-12-26T16:55:57.301Z,3.75
2022-12-26T16:58:31.120Z,9.50
2022-12-26T17:01:12.237Z,7.18
2022-12-26T17:03:56.226Z,12.05
2022-12-26T17:06:32.005Z,6.40
2022-12-26T17:09:12.107Z,5.03
2022-12-26T17:11:53.278Z,9.18
2022-12-26T17:14:34.882Z,10.68
2022-12-26T17:17:28.081Z,8.82
2022-12-26T17:19:58.433Z,5.20
2022-12-26T17:22:36.080Z,6.90
2022-12-26T17:25:33.409Z,8.20
2022-12-26T17:28:14.822Z,6.13
2022-12-26T17:30:45.762Z,5.05
2022-12-26T17:33:28.818Z,8.82
2022-12-26T17:38:54.567Z,11.93
2022-12-26T17:41:21.853Z,5.45
2022-12-26T17:43:50.193Z,9.13
2022-12-26T17:46:18.069Z,9.18
2022-12-26T17:48:45.581Z,8.52
2022-12-26T17:51:18.730Z,11.35
2022-12-26T17:53:51.260Z,10.30
2022-12-26T17:56:24.200Z,7.28
2022-12-26T18:01:21.519Z,11.82
2022-12-26T18:03:52.035Z,8.43
2022-12-26T18:06:19.843Z,11.77
2022-12-26T18:08:47.291Z,12.50
2022-12-26T18:11:14.858Z,7.30
2022-12-26T18:13:43.052Z,10.23
2022-12-26T18:16:19.704Z,11.77
2022-12-26T18:18:48.364Z,11.98
2022-12-26T18:21:16.579Z,13.32
2022-12-26T18:23:44.305Z,8.43
2022-12-26T18:26:28.444Z,10.77
2022-12-26T18:28:55.691Z,10.27
2022-12-26T18:31:23.207Z,6.88
2022-12-26T18:33:50.596Z,8.07
2022-12-26T18:36:20.155Z,8.52
2022-12-26T18:38:47.332Z,9.65
2022-12-26T18:41:17.444Z,8.93
2022-12-26T18:43:44.730Z,17.38
2022-12-26T18:46:17.266Z,16.17
2022-12-26T18:48:44.745Z,16.85
2022-12-26T18:51:12.941Z,21.10
2022-12-26T18:53:40.137Z,13.88
2022-12-26T18:56:12.189Z,9.90
2022-12-26T18:58:39.860Z,10.43
2022-12-26T19:01:07.488Z,9.32
2022-12-26T19:03:34.834Z,10.75
2022-12-26T19:06:02.010Z,13.70
2022-12-26T19:08:29.148Z,11.48
2022-12-26T19:10:56.432Z,13.30
2022-12-26T19:13:23.727Z,13.85
2022-12-26T19:15:50.959Z,14.77
2022-12-26T19:18:18.112Z,13.43
2022-12-26T19:20:45.281Z,15.20
2022-12-26T19:23:12.521Z,13.48
2022-12-26T19:25:39.641Z,17.30
2022-12-26T19:28:06.843Z,12.05
2022-12-26T19:30:38.686Z,16.17
2022-12-26T19:33:07.004Z,17.15
2022-12-26T19:35:34.531Z,22.38
2022-12-26T19:38:01.763Z,14.00
2022-12-26T19:40:28.904Z,20.83
2022-12-26T19:42:56.039Z,17.80
2022-12-26T19:45:23.167Z,28.13
2022-12-26T19:47:50.338Z,14.68
2022-12-26T19:50:17.551Z,16.17
2022-12-26T19:52:44.777Z,17.02
2022-12-26T19:55:12.759Z,18.10
2022-12-26T19:57:39.923Z,16.20
2022-12-26T20:00:08.235Z,19.38
2022-12-26T20:02:35.494Z,20.33
2022-12-26T20:05:03.061Z,23.02
2022-12-26T20:07:30.190Z,21.25
2022-12-26T20:09:57.296Z,13.77
2022-12-26T20:12:24.508Z,17.08
2022-12-26T20:14:51.759Z,19.27
2022-12-26T20:17:18.961Z,20.05
2022-12-26T20:19:47.469Z,20.70
2022-12-26T20:22:14.707Z,16.52
2022-12-26T20:24:41.844Z,14.45
2022-12-26T20:27:09.009Z,18.77
2022-12-26T20:29:36.224Z,19.48
2022-12-26T20:32:03.471Z,19.90
2022-12-26T20:34:30.715Z,12.52
2022-12-26T20:36:57.898Z,19.42
2022-12-26T20:39:25.585Z,17.73
2022-12-26T20:41:53.163Z,27.05
2022-12-26T20:44:20.653Z,16.00
2022-12-26T20:46:47.847Z,42.38
2022-12-26T20:49:15.266Z,19.13
2022-12-26T20:51:44.677Z,15.80
2022-12-26T20:54:15.179Z,21.77
2022-12-26T20:56:43.022Z,14.68
2022-12-26T20:59:10.719Z,20.50
2022-12-26T21:01:39.781Z,18.63
2022-12-26T21:04:08.244Z,21.63
2022-12-26T21:06:37.975Z,20.55
2022-12-26T21:09:06.412Z,17.05
2022-12-26T21:11:39.030Z,14.63
2022-12-26T21:14:12.537Z,37.55
2022-12-26T21:16:47.557Z,18.38
2022-12-26T21:19:17.060Z,16.92
2022-12-26T21:21:52.076Z,19.00
2022-12-26T21:24:30.126Z,17.90
2022-12-26T21:26:57.898Z,14.88
2022-12-26T21:29:29.767Z,15.40
2022-12-26T21:31:58.072Z,19.30
2022-12-26T21:34:30.954Z,17.90
2022-12-26T21:37:17.439Z,16.10
2022-12-26T21:39:45.590Z,22.95
2022-12-26T21:42:13.423Z,15.20
2022-12-26T21:44:40.612Z,23.45
2022-12-26T21:47:08.425Z,18.35
2022-12-26T21:49:36.987Z,22.17
2022-12-26T21:52:06.599Z,13.93
2022-12-26T21:54:53.469Z,17.33
2022-12-26T21:57:21.499Z,25.98
2022-12-26T21:59:58.092Z,17.10
2022-12-26T22:02:48.853Z,17.88
2022-12-26T22:05:18.193Z,22.48
2022-12-26T22:07:46.278Z,19.05
2022-12-26T22:10:32.872Z,18.85
2022-12-26T22:13:01.955Z,39.55
2022-12-26T22:15:48.115Z,22.35
2022-12-26T22:18:15.339Z,23.45
2022-12-26T22:20:44.596Z,18.60
2022-12-26T22:23:13.187Z,15.93
2022-12-26T22:25:40.349Z,12.68
2022-12-26T22:28:07.499Z,18.30
2022-12-26T22:30:34.704Z,17.40
2022-12-26T22:33:01.851Z,19.25
2022-12-26T22:35:28.991Z,16.73
2022-12-26T22:37:56.177Z,13.63
2022-12-26T22:40:23.425Z,21.77
2022-12-26T22:42:50.564Z,14.63
2022-12-26T22:45:17.710Z,23.63
2022-12-26T22:47:44.932Z,25.85
2022-12-26T22:50:18.371Z,18.80
2022-12-26T22:52:45.804Z,21.02
2022-12-26T22:55:13.695Z,21.65
2022-12-26T22:57:42.372Z,22.65
2022-12-26T23:00:13.518Z,16.48
2022-12-26T23:02:41.041Z,20.38
2022-12-26T23:05:11.381Z,14.25
2022-12-26T23:07:39.055Z,19.67
2022-12-26T23:10:08.717Z,19.60
2022-12-26T23:12:45.217Z,20.35
2022-12-26T23:15:24.579Z,17.08
2022-12-26T23:18:50.503Z,13.70
2022-12-26T23:21:39.303Z,25.05
2022-12-26T23:24:08.882Z,22.75
2022-12-26T23:26:36.084Z,17.05
2022-12-26T23:29:21.905Z,19.05
2022-12-26T23:31:49.092Z,19.88
2022-12-26T23:34:16.238Z,16.55
2022-12-26T23:36:43.379Z,14.60
2022-12-26T23:39:10.544Z,15.93
2022-12-26T23:41:37.763Z,9.18
2022-12-26T23:44:05.382Z,16.67
2022-12-26T23:46:32.993Z,18.55
2022-12-26T23:49:00.164Z,12.57
2022-12-26T23:51:27.602Z,16.85
2022-12-26T23:53:54.746Z,18.02
2022-12-26T23:56:21.880Z,15.48
2022-12-26T23:58:49.440Z,17.95
